Time;durP1;ratioP1;P1;durP2;ratioP2;P2;SDS_P1;SDS_P2;PMS_P1;PMS_P2;Temp;Humidity;BMP_temperature;BMP_pressure;BME280_temperature;BME280_humidity;BME280_pressure;Samples;Min_cycle;Max_cycle;Signal;HPM_P1;HPM_P2
2022/09/27 00:00:29;;;;;;;0.60;0.60;;;;;;;;;;5119780;27;20436;-79
2022/09/27 00:02:55;;;;;;;0.60;0.50;;;;;;;;;;5122665;27;20464;-79
2022/09/27 00:05:22;;;;;;;0.70;0.70;;;;;;;;;;5123625;27;20495;-78
2022/09/27 00:07:49;;;;;;;0.60;0.60;;;;;;;;;;5128605;27;20464;-78
2022/09/27 00:10:16;;;;;;;0.60;0.50;;;;;;;;;;5110074;27;20508;-79
2022/09/27 00:12:43;;;;;;;0.60;0.50;;;;;;;;;;5146926;27;20464;-78
2022/09/27 00:15:11;;;;;;;0.60;0.60;;;;;;;;;;5125962;27;20460;-79
2022/09/27 00:17:39;;;;;;;0.60;0.50;;;;;;;;;;5144777;27;20446;-77
2022/09/27 00:20:07;;;;;;;0.60;0.60;;;;;;;;;;5135406;27;20863;-79
2022/09/27 00:22:34;;;;;;;0.60;0.57;;;;;;;;;;5123640;27;20885;-78
2022/09/27 00:25:00;;;;;;;0.60;0.50;;;;;;;;;;5115913;27;20447;-80
2022/09/27 00:27:27;;;;;;;1.00;1.00;;;;;;;;;;5124751;27;20541;-79
2022/09/27 00:29:54;;;;;;;0.70;0.70;;;;;;;;;;5123313;27;20465;-79
2022/09/27 00:32:22;;;;;;;0.60;0.50;;;;;;;;;;5105873;27;20467;-77
2022/09/27 00:34:49;;;;;;;0.60;0.60;;;;;;;;;;5130116;27;20475;-78
2022/09/27 00:37:17;;;;;;;0.60;0.60;;;;;;;;;;5145139;27;20463;-77
2022/09/27 00:39:45;;;;;;;0.70;0.67;;;;;;;;;;5109793;27;20461;-78
2022/09/27 00:42:13;;;;;;;1.00;0.90;;;;;;;;;;5121019;27;20444;-80
2022/09/27 00:45:01;;;;;;;0.60;0.60;;;;;;;;;;5129995;27;20507;-79
2022/09/27 00:47:31;;;;;;;0.60;0.60;;;;;;;;;;5119688;27;20973;-80
2022/09/27 00:50:01;;;;;;;0.60;0.60;;;;;;;;;;5118308;27;20516;-79
2022/09/27 00:52:33;;;;;;;0.60;0.60;;;;;;;;;;5107608;27;20507;-78
2022/09/27 00:55:08;;;;;;;0.60;0.60;;;;;;;;;;5124652;27;20460;-78
2022/09/27 00:57:37;;;;;;;0.60;0.50;;;;;;;;;;5110608;27;20471;-77
2022/09/27 01:00:09;;;;;;;0.60;0.60;;;;;;;;;;5108799;27;20525;-77
2022/09/27 01:02:43;;;;;;;0.60;0.60;;;;;;;;;;5125726;27;20450;-78
2022/09/27 01:05:21;;;;;;;0.60;0.60;;;;;;;;;;5116567;27;20455;-78
2022/09/27 01:07:49;;;;;;;0.60;0.50;;;;;;;;;;5123205;27;20921;-78
2022/09/27 01:10:21;;;;;;;0.60;0.60;;;;;;;;;;5108598;27;20459;-79
2022/09/27 01:12:56;;;;;;;0.60;0.60;;;;;;;;;;5093014;27;20847;-79
2022/09/27 01:15:28;;;;;;;0.60;0.60;;;;;;;;;;5090135;27;20451;-79
2022/09/27 01:18:14;;;;;;;0.60;0.60;;;;;;;;;;5108837;27;20451;-78
2022/09/27 01:21:08;;;;;;;0.60;0.50;;;;;;;;;;5078353;27;20470;-77
2022/09/27 01:23:47;;;;;;;0.77;0.77;;;;;;;;;;5142427;27;20470;-78
2022/09/27 01:26:25;;;;;;;0.60;0.60;;;;;;;;;;5121042;27;20459;-79
2022/09/27 01:28:59;;;;;;;0.60;0.50;;;;;;;;;;5122183;27;20454;-75
2022/09/27 01:31:34;;;;;;;0.60;0.60;;;;;;;;;;5127071;27;20443;-77
2022/09/27 01:34:07;;;;;;;0.60;0.50;;;;;;;;;;5125919;27;20509;-80
2022/09/27 01:36:45;;;;;;;0.60;0.60;;;;;;;;;;5094729;27;20492;-79
2022/09/27 01:39:21;;;;;;;0.60;0.50;;;;;;;;;;5091060;27;20439;-79
2022/09/27 01:42:14;;;;;;;1.17;1.10;;;;;;;;;;5127577;27;20449;-80
2022/09/27 01:44:56;;;;;;;0.60;0.50;;;;;;;;;;5116403;27;20460;-79
2022/09/27 01:47:35;;;;;;;0.60;0.60;;;;;;;;;;5119919;27;20451;-78
2022/09/27 01:50:24;;;;;;;0.60;0.60;;;;;;;;;;5108866;27;20470;-79
2022/09/27 01:52:56;;;;;;;0.60;0.60;;;;;;;;;;5105929;27;20501;-78
2022/09/27 01:55:29;;;;;;;0.60;0.50;;;;;;;;;;5125358;27;20463;-80
2022/09/27 01:58:37;;;;;;;0.60;0.50;;;;;;;;;;5061348;28;20450;-78
2022/09/27 02:01:07;;;;;;;0.60;0.60;;;;;;;;;;5111254;27;20486;-77
2022/09/27 02:03:43;;;;;;;0.60;0.60;;;;;;;;;;5131229;27;20455;-77
2022/09/27 02:06:48;;;;;;;0.63;0.60;;;;;;;;;;5103146;27;20508;-77
2022/09/27 02:09:24;;;;;;;0.70;0.60;;;;;;;;;;5120975;27;20905;-76
2022/09/27 02:12:04;;;;;;;0.60;0.60;;;;;;;;;;5116774;27;20938;-78
2022/09/27 02:14:36;;;;;;;1.20;1.10;;;;;;;;;;5103848;27;20545;-81
2022/09/27 02:17:07;;;;;;;0.70;0.67;;;;;;;;;;5104380;27;20451;-76
2022/09/27 02:19:39;;;;;;;1.93;1.83;;;;;;;;;;5127005;27;21024;-79
2022/09/27 02:22:12;;;;;;;0.60;0.60;;;;;;;;;;5120819;27;20461;-78
2022/09/27 02:24:41;;;;;;;0.60;0.60;;;;;;;;;;5123130;27;20506;-75
2022/09/27 02:27:11;;;;;;;0.60;0.60;;;;;;;;;;5125483;27;20450;-79
2022/09/27 02:29:42;;;;;;;0.60;0.50;;;;;;;;;;5100575;27;20480;-78
2022/09/27 02:32:13;;;;;;;0.60;0.60;;;;;;;;;;5102577;28;20456;-78
2022/09/27 02:35:06;;;;;;;0.60;0.50;;;;;;;;;;5140113;27;20435;-77
2022/09/27 02:37:33;;;;;;;0.60;0.60;;;;;;;;;;5123309;28;20472;-77
2022/09/27 02:40:00;;;;;;;0.60;0.60;;;;;;;;;;5107186;27;20507;-77
2022/09/27 02:42:27;;;;;;;0.60;0.57;;;;;;;;;;5117184;27;20466;-79
2022/09/27 02:44:54;;;;;;;0.70;0.70;;;;;;;;;;5112616;27;20446;-78
2022/09/27 02:47:30;;;;;;;0.60;0.60;;;;;;;;;;5112997;27;20493;-78
2022/09/27 02:50:02;;;;;;;0.60;0.50;;;;;;;;;;5129133;27;20562;-77
2022/09/27 02:53:06;;;;;;;0.60;0.60;;;;;;;;;;5117047;27;20485;-76
2022/09/27 02:55:43;;;;;;;0.60;0.60;;;;;;;;;;5121757;28;20448;-78
2022/09/27 02:58:36;;;;;;;0.60;0.60;;;;;;;;;;5142007;27;21023;-78
2022/09/27 03:01:39;;;;;;;0.60;0.53;;;;;;;;;;5109624;27;20437;-77
2022/09/27 03:04:22;;;;;;;1.53;1.43;;;;;;;;;;5112962;27;20456;-78
2022/09/27 03:06:50;;;;;;;0.60;0.60;;;;;;;;;;5157126;27;20446;-78
2022/09/27 03:09:19;;;;;;;0.70;0.70;;;;;;;;;;5112122;27;20996;-76
2022/09/27 03:11:46;;;;;;;0.60;0.60;;;;;;;;;;5120650;27;22398;-77
2022/09/27 03:14:13;;;;;;;0.60;0.60;;;;;;;;;;5124036;27;20444;-77
2022/09/27 03:16:49;;;;;;;0.60;0.50;;;;;;;;;;5132772;27;20448;-79
2022/09/27 03:19:37;;;;;;;0.60;0.60;;;;;;;;;;5100852;27;20494;-77
2022/09/27 03:22:42;;;;;;;2.93;0.93;;;;;;;;;;5101379;28;20447;-78
2022/09/27 03:25:11;;;;;;;0.83;0.80;;;;;;;;;;5091305;28;20455;-77
2022/09/27 03:27:38;;;;;;;0.60;0.60;;;;;;;;;;5116519;27;20521;-77
2022/09/27 03:30:06;;;;;;;0.60;0.60;;;;;;;;;;5109594;27;20554;-77
2022/09/27 03:32:33;;;;;;;0.60;0.50;;;;;;;;;;5107644;27;20463;-78
2022/09/27 03:35:33;;;;;;;0.60;0.60;;;;;;;;;;5129999;27;20489;-78
2022/09/27 03:38:00;;;;;;;0.60;0.60;;;;;;;;;;5128280;27;20517;-76
2022/09/27 03:40:29;;;;;;;0.60;0.57;;;;;;;;;;5134260;27;20525;-76
2022/09/27 03:42:55;;;;;;;0.63;0.60;;;;;;;;;;5105791;27;20446;-76
2022/09/27 03:45:24;;;;;;;0.60;0.60;;;;;;;;;;5102799;27;20916;-76
2022/09/27 03:47:51;;;;;;;0.60;0.50;;;;;;;;;;5126201;27;20436;-77
2022/09/27 03:50:19;;;;;;;0.60;0.50;;;;;;;;;;5109510;27;20992;-79
2022/09/27 03:52:48;;;;;;;0.60;0.50;;;;;;;;;;5102608;27;20968;-77
2022/09/27 03:55:16;;;;;;;0.83;0.83;;;;;;;;;;5109577;27;20461;-79
2022/09/27 03:57:45;;;;;;;0.60;0.60;;;;;;;;;;5122020;27;20491;-79
2022/09/27 04:00:14;;;;;;;0.60;0.60;;;;;;;;;;5103238;27;20425;-78
2022/09/27 04:02:41;;;;;;;0.70;0.60;;;;;;;;;;5143051;27;20950;-80
2022/09/27 04:05:23;;;;;;;0.70;0.70;;;;;;;;;;5123373;27;20807;-80
2022/09/27 04:08:05;;;;;;;0.60;0.60;;;;;;;;;;5123252;27;20796;-79
2022/09/27 04:10:32;;;;;;;0.60;0.50;;;;;;;;;;5128410;27;20461;-78
2022/09/27 04:13:01;;;;;;;0.83;0.77;;;;;;;;;;5127225;27;20552;-77
2022/09/27 04:15:33;;;;;;;0.60;0.60;;;;;;;;;;5127961;27;20532;-77
2022/09/27 04:18:19;;;;;;;0.60;0.60;;;;;;;;;;5126955;27;20444;-77
2022/09/27 04:21:04;;;;;;;0.60;0.60;;;;;;;;;;5137127;27;20439;-78
2022/09/27 04:23:33;;;;;;;0.60;0.50;;;;;;;;;;5106578;27;20443;-78
2022/09/27 04:26:00;;;;;;;0.60;0.60;;;;;;;;;;5117333;27;20467;-78
2022/09/27 04:28:50;;;;;;;0.60;0.60;;;;;;;;;;5117463;27;20452;-78
2022/09/27 04:31:21;;;;;;;0.60;0.50;;;;;;;;;;5122052;27;20438;-78
2022/09/27 04:34:07;;;;;;;0.60;0.60;;;;;;;;;;5145642;27;20413;-79
2022/09/27 04:36:35;;;;;;;0.60;0.60;;;;;;;;;;5107355;27;20819;-77
2022/09/27 04:39:08;;;;;;;0.60;0.60;;;;;;;;;;5130128;27;20436;-77
2022/09/27 04:41:39;;;;;;;0.67;0.63;;;;;;;;;;5126429;27;20436;-79
2022/09/27 04:44:07;;;;;;;0.60;0.60;;;;;;;;;;5127780;27;20471;-78
2022/09/27 04:46:34;;;;;;;0.60;0.50;;;;;;;;;;5124889;27;21056;-79
2022/09/27 04:49:02;;;;;;;0.60;0.50;;;;;;;;;;5140287;27;20762;-78
2022/09/27 04:51:30;;;;;;;0.60;0.60;;;;;;;;;;5106502;27;20469;-79
2022/09/27 04:54:00;;;;;;;0.60;0.60;;;;;;;;;;5136000;27;20444;-80
2022/09/27 04:56:34;;;;;;;0.60;0.60;;;;;;;;;;5120409;27;20444;-78
2022/09/27 04:59:03;;;;;;;0.60;0.57;;;;;;;;;;5111209;27;20535;-80
2022/09/27 05:01:40;;;;;;;0.60;0.60;;;;;;;;;;5125088;27;20441;-78
2022/09/27 05:04:15;;;;;;;0.60;0.60;;;;;;;;;;5127687;27;20424;-79
2022/09/27 05:06:47;;;;;;;0.63;0.60;;;;;;;;;;5112509;27;21022;-79
2022/09/27 05:09:27;;;;;;;0.60;0.60;;;;;;;;;;5124832;27;20874;-80
2022/09/27 05:11:55;;;;;;;0.60;0.60;;;;;;;;;;5146980;27;20424;-80
2022/09/27 05:14:31;;;;;;;0.60;0.50;;;;;;;;;;5130595;27;20457;-79
2022/09/27 05:17:21;;;;;;;0.60;0.50;;;;;;;;;;5103294;27;20544;-80
2022/09/27 05:20:08;;;;;;;0.60;0.60;;;;;;;;;;5147735;27;20428;-79
2022/09/27 05:22:42;;;;;;;0.60;0.60;;;;;;;;;;5119422;27;20845;-79
2022/09/27 05:25:10;;;;;;;0.60;0.60;;;;;;;;;;5128327;27;20435;-79
2022/09/27 05:27:36;;;;;;;0.60;0.60;;;;;;;;;;5131322;27;20443;-78
2022/09/27 05:30:05;;;;;;;0.60;0.60;;;;;;;;;;5125637;27;20479;-77
2022/09/27 05:32:48;;;;;;;0.60;0.60;;;;;;;;;;5122204;27;20423;-77
2022/09/27 05:35:43;;;;;;;0.60;0.60;;;;;;;;;;5095187;27;20453;-77
2022/09/27 05:38:12;;;;;;;0.60;0.50;;;;;;;;;;5102792;27;20432;-80
2022/09/27 05:40:44;;;;;;;0.60;0.60;;;;;;;;;;5124243;27;20486;-78
2022/09/27 05:43:11;;;;;;;0.60;0.50;;;;;;;;;;5126414;27;20538;-78
2022/09/27 05:45:38;;;;;;;0.60;0.50;;;;;;;;;;5110469;27;20431;-80
2022/09/27 05:48:07;;;;;;;0.60;0.50;;;;;;;;;;5135792;27;20486;-79
2022/09/27 05:50:43;;;;;;;0.60;0.60;;;;;;;;;;5093251;27;20472;-79
2022/09/27 05:53:12;;;;;;;0.60;0.60;;;;;;;;;;5148694;27;20438;-79
2022/09/27 05:55:40;;;;;;;0.60;0.50;;;;;;;;;;5109772;27;20496;-79
2022/09/27 05:58:09;;;;;;;0.60;0.60;;;;;;;;;;5128705;27;20513;-78
2022/09/27 06:00:42;;;;;;;0.60;0.60;;;;;;;;;;5159043;27;20434;-80
2022/09/27 06:03:30;;;;;;;0.60;0.50;;;;;;;;;;5127901;27;20428;-78
2022/09/27 06:06:15;;;;;;;0.60;0.60;;;;;;;;;;5131596;27;20448;-77
2022/09/27 06:08:56;;;;;;;0.60;0.60;;;;;;;;;;5124441;27;20443;-76
2022/09/27 06:11:26;;;;;;;0.60;0.60;;;;;;;;;;5127722;27;20835;-78
2022/09/27 06:13:53;;;;;;;0.60;0.60;;;;;;;;;;5110895;27;20442;-78
2022/09/27 06:16:20;;;;;;;0.60;0.53;;;;;;;;;;5135587;27;20473;-80
2022/09/27 06:18:48;;;;;;;0.70;0.70;;;;;;;;;;5146122;27;20898;-75
2022/09/27 06:21:16;;;;;;;0.60;0.50;;;;;;;;;;5131027;27;20995;-77
2022/09/27 06:23:51;;;;;;;0.70;0.63;;;;;;;;;;5122478;27;20444;-78
2022/09/27 06:26:27;;;;;;;0.60;0.60;;;;;;;;;;5108255;27;20444;-80
2022/09/27 06:29:07;;;;;;;0.60;0.60;;;;;;;;;;5108232;27;20443;-78
2022/09/27 06:31:37;;;;;;;0.60;0.60;;;;;;;;;;5109645;27;20485;-79
2022/09/27 06:34:16;;;;;;;0.60;0.50;;;;;;;;;;5111391;27;20427;-79
2022/09/27 06:36:44;;;;;;;0.60;0.50;;;;;;;;;;5113691;27;20459;-79
2022/09/27 06:39:17;;;;;;;0.60;0.60;;;;;;;;;;5116156;27;20451;-80
2022/09/27 06:42:18;;;;;;;0.60;0.50;;;;;;;;;;5128562;27;20459;-80
2022/09/27 06:45:06;;;;;;;0.60;0.60;;;;;;;;;;5112480;27;20809;-80
2022/09/27 06:48:02;;;;;;;0.60;0.50;;;;;;;;;;5074092;27;20432;-80
2022/09/27 06:50:47;;;;;;;0.60;0.60;;;;;;;;;;5129077;27;20482;-79
2022/09/27 06:53:15;;;;;;;0.60;0.50;;;;;;;;;;5130539;27;20443;-79
2022/09/27 06:55:44;;;;;;;0.70;0.70;;;;;;;;;;5107282;27;20430;-81
2022/09/27 07:01:28;;;;;;;0.60;0.50;;;;;;;;;;5105258;28;20428;-80
2022/09/27 07:04:18;;;;;;;0.60;0.50;;;;;;;;;;5125796;27;20826;-81
2022/09/27 07:07:00;;;;;;;0.60;0.60;;;;;;;;;;5151978;27;20542;-79
2022/09/27 07:09:31;;;;;;;1.07;1.07;;;;;;;;;;5136108;27;20541;-79
2022/09/27 07:11:59;;;;;;;0.60;0.60;;;;;;;;;;5126800;27;20569;-80
2022/09/27 07:14:26;;;;;;;0.60;0.60;;;;;;;;;;5115392;27;20474;-79
2022/09/27 07:16:56;;;;;;;2.60;1.20;;;;;;;;;;5118757;27;20448;-80
2022/09/27 07:19:25;;;;;;;0.63;0.63;;;;;;;;;;5127945;27;20487;-78
2022/09/27 07:21:52;;;;;;;0.60;0.60;;;;;;;;;;5121489;27;20522;-81
2022/09/27 07:24:20;;;;;;;0.60;0.60;;;;;;;;;;5127178;27;20436;-80
2022/09/27 07:26:50;;;;;;;0.60;0.60;;;;;;;;;;5131639;27;20487;-79
2022/09/27 07:29:21;;;;;;;0.60;0.60;;;;;;;;;;5121865;27;20474;-80
2022/09/27 07:31:55;;;;;;;0.60;0.50;;;;;;;;;;5114575;27;20489;-82
2022/09/27 07:34:23;;;;;;;0.60;0.60;;;;;;;;;;5123367;27;20799;-80
2022/09/27 07:36:53;;;;;;;0.60;0.60;;;;;;;;;;5125031;27;20462;-79
2022/09/27 07:39:22;;;;;;;0.60;0.60;;;;;;;;;;5141074;27;20530;-80
2022/09/27 07:41:49;;;;;;;0.70;0.60;;;;;;;;;;5153161;27;20477;-78
2022/09/27 07:44:16;;;;;;;0.60;0.50;;;;;;;;;;5136128;27;20571;-81
2022/09/27 07:47:09;;;;;;;0.60;0.60;;;;;;;;;;5131513;27;20470;-78
2022/09/27 07:49:55;;;;;;;0.60;0.60;;;;;;;;;;5154776;27;20420;-81
2022/09/27 07:52:38;;;;;;;0.60;0.60;;;;;;;;;;5132246;27;20472;-81
2022/09/27 07:55:27;;;;;;;0.60;0.60;;;;;;;;;;5148471;27;20506;-79
2022/09/27 07:58:12;;;;;;;0.70;0.70;;;;;;;;;;5136050;27;20471;-79
2022/09/27 08:00:40;;;;;;;0.70;0.63;;;;;;;;;;5140311;27;20764;-80
2022/09/27 08:03:10;;;;;;;0.70;0.70;;;;;;;;;;5141948;27;20505;-78
2022/09/27 08:05:37;;;;;;;0.60;0.60;;;;;;;;;;5141081;27;20489;-80
2022/09/27 08:08:05;;;;;;;0.70;0.70;;;;;;;;;;5136568;27;20943;-80
2022/09/27 08:10:33;;;;;;;0.60;0.60;;;;;;;;;;5131283;27;20520;-80
2022/09/27 08:13:02;;;;;;;0.60;0.60;;;;;;;;;;5130884;27;20534;-79
2022/09/27 08:15:30;;;;;;;0.60;0.60;;;;;;;;;;5130351;27;20450;-80
2022/09/27 08:17:56;;;;;;;0.60;0.60;;;;;;;;;;5111514;27;20446;-77
2022/09/27 08:20:42;;;;;;;0.70;0.70;;;;;;;;;;5127454;27;20455;-78
2022/09/27 08:23:32;;;;;;;0.70;0.60;;;;;;;;;;5126410;27;20465;-80
2022/09/27 08:26:36;;;;;;;0.70;0.60;;;;;;;;;;5085086;28;20438;-77
2022/09/27 08:29:12;;;;;;;0.60;0.60;;;;;;;;;;5132682;27;20439;-78
2022/09/27 08:31:49;;;;;;;0.60;0.60;;;;;;;;;;5138686;27;20474;-78
2022/09/27 08:34:17;;;;;;;0.70;0.60;;;;;;;;;;5132489;27;20437;-79
2022/09/27 08:36:44;;;;;;;0.60;0.60;;;;;;;;;;5128270;27;20472;-75
2022/09/27 08:39:11;;;;;;;0.70;0.60;;;;;;;;;;5129414;27;20474;-79
2022/09/27 08:41:46;;;;;;;0.60;0.60;;;;;;;;;;5129555;27;20439;-80
2022/09/27 08:44:23;;;;;;;0.60;0.60;;;;;;;;;;5149185;27;20467;-81
2022/09/27 08:47:08;;;;;;;0.60;0.60;;;;;;;;;;5118579;27;21062;-77
2022/09/27 08:49:37;;;;;;;0.60;0.60;;;;;;;;;;5122129;27;20437;-79
2022/09/27 08:52:06;;;;;;;0.70;0.70;;;;;;;;;;5133379;27;20470;-78
2022/09/27 08:54:34;;;;;;;0.70;0.70;;;;;;;;;;5120180;27;20457;-76
2022/09/27 08:57:04;;;;;;;1.20;0.97;;;;;;;;;;5106644;27;20436;-79
2022/09/27 08:59:34;;;;;;;0.70;0.60;;;;;;;;;;5131023;27;20473;-77
2022/09/27 09:02:01;;;;;;;0.70;0.70;;;;;;;;;;5117132;27;20442;-78
2022/09/27 09:04:36;;;;;;;0.70;0.70;;;;;;;;;;5129307;27;20822;-79
2022/09/27 09:07:07;;;;;;;0.70;0.60;;;;;;;;;;5131665;27;20557;-78
2022/09/27 09:09:40;;;;;;;0.70;0.70;;;;;;;;;;5112953;27;21033;-77
2022/09/27 09:15:19;;;;;;;0.70;0.60;;;;;;;;;;5134509;27;20449;-80
2022/09/27 09:18:15;;;;;;;0.70;0.60;;;;;;;;;;5118393;27;20444;-82
2022/09/27 09:21:07;;;;;;;0.70;0.60;;;;;;;;;;5097945;27;20549;-83
2022/09/27 09:23:43;;;;;;;0.70;0.70;;;;;;;;;;5121652;27;20436;-80
2022/09/27 09:26:14;;;;;;;0.70;0.70;;;;;;;;;;5110055;27;20446;-78
2022/09/27 09:28:48;;;;;;;0.70;0.70;;;;;;;;;;5124244;27;20484;-79
2022/09/27 09:31:20;;;;;;;0.80;0.80;;;;;;;;;;5095999;27;20481;-82
2022/09/27 09:33:54;;;;;;;0.70;0.60;;;;;;;;;;5127235;27;20535;-84
2022/09/27 09:36:24;;;;;;;0.70;0.70;;;;;;;;;;5113891;27;20969;-82
2022/09/27 09:38:53;;;;;;;0.70;0.67;;;;;;;;;;5112753;27;20439;-82
2022/09/27 09:41:25;;;;;;;0.70;0.70;;;;;;;;;;5130586;27;20475;-86
2022/09/27 09:43:55;;;;;;;0.70;0.67;;;;;;;;;;5124306;27;20543;-83
2022/09/27 09:46:25;;;;;;;0.70;0.60;;;;;;;;;;5094383;27;20449;-81
2022/09/27 09:48:57;;;;;;;0.70;0.70;;;;;;;;;;5128891;27;20453;-81
2022/09/27 09:51:27;;;;;;;0.70;0.70;;;;;;;;;;5120178;27;20509;-81
2022/09/27 09:53:56;;;;;;;0.70;0.70;;;;;;;;;;5120429;27;20489;-83
2022/09/27 09:56:33;;;;;;;0.70;0.70;;;;;;;;;;5125639;27;20437;-83
2022/09/27 09:59:01;;;;;;;0.70;0.63;;;;;;;;;;5130340;27;20457;-83
2022/09/27 10:01:36;;;;;;;0.70;0.60;;;;;;;;;;5111985;27;20457;-83
2022/09/27 10:04:03;;;;;;;0.70;0.70;;;;;;;;;;5128371;27;20476;-83
2022/09/27 10:06:31;;;;;;;0.70;0.70;;;;;;;;;;5127568;27;20467;-82
2022/09/27 10:09:00;;;;;;;0.70;0.70;;;;;;;;;;5129109;27;20482;-78
2022/09/27 10:11:41;;;;;;;0.70;0.70;;;;;;;;;;5116162;27;20478;-83
2022/09/27 10:14:18;;;;;;;0.70;0.60;;;;;;;;;;5136065;27;20539;-82
2022/09/27 10:16:49;;;;;;;0.70;0.70;;;;;;;;;;5100414;27;20450;-80
2022/09/27 10:19:19;;;;;;;0.70;0.70;;;;;;;;;;5101574;27;20447;-82
2022/09/27 10:21:49;;;;;;;0.70;0.70;;;;;;;;;;5122778;27;20495;-83
2022/09/27 10:24:17;;;;;;;0.70;0.70;;;;;;;;;;5128310;27;20438;-78
2022/09/27 10:27:00;;;;;;;1.17;1.07;;;;;;;;;;5131600;27;20437;-81
2022/09/27 10:29:32;;;;;;;0.70;0.70;;;;;;;;;;5110545;27;20444;-81
2022/09/27 10:32:17;;;;;;;0.70;0.70;;;;;;;;;;5098154;27;20472;-81
2022/09/27 10:34:47;;;;;;;0.70;0.70;;;;;;;;;;5129089;27;20448;-83
2022/09/27 10:37:16;;;;;;;0.70;0.70;;;;;;;;;;5124706;27;21045;-83
2022/09/27 10:39:55;;;;;;;0.70;0.70;;;;;;;;;;5133662;27;20455;-81
2022/09/27 10:42:34;;;;;;;0.70;0.70;;;;;;;;;;5134158;27;20440;-81
2022/09/27 10:45:16;;;;;;;0.80;0.80;;;;;;;;;;5135774;27;20481;-82
2022/09/27 10:47:54;;;;;;;0.70;0.70;;;;;;;;;;5117869;27;20439;-82
2022/09/27 10:50:31;;;;;;;0.70;0.70;;;;;;;;;;5128066;27;20462;-84
2022/09/27 10:53:24;;;;;;;0.73;0.73;;;;;;;;;;5130127;27;20436;-83
2022/09/27 10:55:58;;;;;;;1.43;1.10;;;;;;;;;;5122252;27;20820;-81
2022/09/27 10:58:26;;;;;;;0.70;0.70;;;;;;;;;;5124457;28;20460;-84
2022/09/27 11:01:01;;;;;;;0.70;0.70;;;;;;;;;;5142451;27;20458;-82
2022/09/27 11:03:36;;;;;;;0.70;0.70;;;;;;;;;;5100102;27;20457;-81
2022/09/27 11:06:17;;;;;;;0.70;0.70;;;;;;;;;;5105008;27;20494;-83
2022/09/27 11:08:47;;;;;;;0.70;0.70;;;;;;;;;;5121662;27;20480;-82
2022/09/27 11:11:18;;;;;;;0.70;0.60;;;;;;;;;;5117982;27;20465;-81
2022/09/27 11:13:57;;;;;;;0.80;0.70;;;;;;;;;;5120114;27;20823;-82
2022/09/27 11:16:31;;;;;;;0.70;0.70;;;;;;;;;;5118267;27;20444;-82
2022/09/27 11:19:06;;;;;;;0.70;0.70;;;;;;;;;;5104634;27;20560;-80
2022/09/27 11:21:44;;;;;;;0.70;0.70;;;;;;;;;;5130971;27;20478;-82
2022/09/27 11:24:19;;;;;;;0.70;0.70;;;;;;;;;;5095984;27;20523;-81
2022/09/27 11:26:51;;;;;;;0.70;0.70;;;;;;;;;;5136862;27;20428;-81
2022/09/27 11:29:24;;;;;;;0.80;0.80;;;;;;;;;;5125734;27;20847;-81
2022/09/27 11:32:16;;;;;;;0.70;0.70;;;;;;;;;;5128528;27;20570;-81
2022/09/27 11:34:56;;;;;;;1.03;0.93;;;;;;;;;;5122093;27;20450;-79
2022/09/27 11:37:30;;;;;;;0.90;0.90;;;;;;;;;;5125960;27;21016;-80
2022/09/27 11:40:04;;;;;;;0.87;0.87;;;;;;;;;;5122591;27;20474;-81
2022/09/27 11:42:48;;;;;;;0.87;0.87;;;;;;;;;;5135547;27;20434;-82
2022/09/27 11:45:23;;;;;;;0.70;0.70;;;;;;;;;;5110128;27;20538;-80
2022/09/27 11:48:17;;;;;;;0.70;0.70;;;;;;;;;;5108148;27;20442;-82
2022/09/27 11:50:55;;;;;;;0.70;0.70;;;;;;;;;;5119765;27;20982;-83
2022/09/27 11:53:34;;;;;;;0.70;0.70;;;;;;;;;;5130012;27;20566;-79
2022/09/27 11:56:09;;;;;;;0.80;0.80;;;;;;;;;;5112131;27;20457;-81
2022/09/27 11:58:43;;;;;;;0.73;0.70;;;;;;;;;;5143224;27;20468;-80
2022/09/27 12:01:23;;;;;;;0.80;0.80;;;;;;;;;;5118330;27;20809;-81
2022/09/27 12:03:59;;;;;;;0.80;0.80;;;;;;;;;;5121238;27;20440;-80
2022/09/27 12:06:30;;;;;;;0.80;0.70;;;;;;;;;;5115862;27;20482;-80
2022/09/27 12:09:04;;;;;;;0.80;0.80;;;;;;;;;;5120124;27;20452;-81
2022/09/27 12:11:36;;;;;;;0.70;0.70;;;;;;;;;;5132353;27;21003;-81
2022/09/27 12:14:06;;;;;;;0.70;0.70;;;;;;;;;;5111103;27;20456;-80
2022/09/27 12:16:33;;;;;;;0.70;0.70;;;;;;;;;;5141469;27;20451;-80
2022/09/27 12:19:03;;;;;;;0.80;0.80;;;;;;;;;;5127894;27;20447;-80
2022/09/27 12:21:46;;;;;;;0.93;0.93;;;;;;;;;;5110644;27;20492;-80
2022/09/27 12:24:17;;;;;;;0.70;0.70;;;;;;;;;;5111516;27;20948;-80
2022/09/27 12:26:58;;;;;;;1.20;1.10;;;;;;;;;;5103080;27;20506;-80
2022/09/27 12:29:26;;;;;;;0.70;0.60;;;;;;;;;;5120210;27;20451;-83
2022/09/27 12:31:56;;;;;;;0.80;0.80;;;;;;;;;;5119037;27;20833;-81
2022/09/27 12:34:28;;;;;;;0.90;0.90;;;;;;;;;;5121309;27;20975;-80
2022/09/27 12:36:57;;;;;;;0.70;0.70;;;;;;;;;;5097543;27;21032;-82
2022/09/27 12:39:29;;;;;;;0.70;0.70;;;;;;;;;;5124311;27;20820;-85
2022/09/27 12:42:13;;;;;;;0.70;0.67;;;;;;;;;;5112181;27;20552;-83
2022/09/27 12:44:44;;;;;;;0.70;0.60;;;;;;;;;;5103937;27;20438;-83
2022/09/27 12:47:25;;;;;;;0.70;0.70;;;;;;;;;;5112405;27;21003;-82
2022/09/27 12:49:56;;;;;;;0.70;0.70;;;;;;;;;;5128014;27;20451;-84
2022/09/27 12:52:30;;;;;;;0.70;0.60;;;;;;;;;;5118662;27;20836;-88
2022/09/27 12:55:16;;;;;;;0.70;0.70;;;;;;;;;;5104378;27;21012;-83
2022/09/27 12:57:49;;;;;;;0.70;0.70;;;;;;;;;;5133153;27;20466;-84
2022/09/27 13:00:24;;;;;;;1.47;1.17;;;;;;;;;;5129922;27;21009;-83
2022/09/27 13:03:18;;;;;;;0.70;0.70;;;;;;;;;;5113039;27;20495;-81
2022/09/27 13:06:19;;;;;;;0.70;0.63;;;;;;;;;;5102843;27;20493;-82
2022/09/27 13:09:09;;;;;;;0.60;0.60;;;;;;;;;;5115721;27;20454;-82
2022/09/27 13:11:55;;;;;;;0.70;0.60;;;;;;;;;;5128826;27;20482;-81
2022/09/27 13:14:28;;;;;;;0.60;0.60;;;;;;;;;;5110245;27;20477;-82
2022/09/27 13:16:55;;;;;;;0.70;0.60;;;;;;;;;;5123287;27;20452;-82
2022/09/27 13:19:38;;;;;;;0.60;0.60;;;;;;;;;;5122531;27;20450;-82
2022/09/27 13:22:06;;;;;;;0.60;0.60;;;;;;;;;;5107561;27;20481;-81
2022/09/27 13:24:56;;;;;;;0.60;0.60;;;;;;;;;;5126114;27;20459;-82
2022/09/27 13:27:46;;;;;;;0.70;0.70;;;;;;;;;;5131220;27;20506;-82
2022/09/27 13:30:44;;;;;;;0.60;0.60;;;;;;;;;;5116134;27;20452;-83
2022/09/27 13:33:40;;;;;;;0.67;0.67;;;;;;;;;;5118461;27;20474;-84
2022/09/27 13:36:26;;;;;;;0.70;0.70;;;;;;;;;;5111319;27;20477;-84
2022/09/27 13:39:04;;;;;;;0.70;0.70;;;;;;;;;;5107435;27;20457;-84
2022/09/27 13:42:03;;;;;;;0.60;0.60;;;;;;;;;;5114630;27;20487;-85
2022/09/27 13:44:35;;;;;;;0.60;0.60;;;;;;;;;;5104062;27;20459;-83
2022/09/27 13:47:05;;;;;;;0.70;0.70;;;;;;;;;;5139612;27;20938;-81
2022/09/27 13:49:36;;;;;;;0.70;0.60;;;;;;;;;;5127656;27;20475;-81
2022/09/27 13:52:22;;;;;;;0.70;0.70;;;;;;;;;;5125958;27;20478;-82
2022/09/27 13:55:32;;;;;;;0.60;0.60;;;;;;;;;;5148907;27;20448;-82
2022/09/27 13:58:02;;;;;;;0.60;0.60;;;;;;;;;;5137053;27;20546;-82
2022/09/27 14:00:37;;;;;;;0.70;0.60;;;;;;;;;;5122728;27;20447;-83
2022/09/27 14:03:06;;;;;;;0.63;0.60;;;;;;;;;;5104267;27;20432;-83
2022/09/27 14:05:37;;;;;;;0.70;0.70;;;;;;;;;;5138839;27;20452;-81
2022/09/27 14:08:15;;;;;;;0.70;0.70;;;;;;;;;;5121670;27;20461;-81
2022/09/27 14:10:42;;;;;;;0.70;0.70;;;;;;;;;;5126066;28;20439;-83
2022/09/27 14:13:14;;;;;;;0.60;0.60;;;;;;;;;;5107743;28;20456;-84
2022/09/27 14:15:52;;;;;;;0.60;0.60;;;;;;;;;;5110952;28;20445;-82
2022/09/27 14:18:21;;;;;;;0.60;0.60;;;;;;;;;;5135067;27;20439;-82
2022/09/27 14:20:51;;;;;;;0.70;0.70;;;;;;;;;;5112730;27;20512;-83
2022/09/27 14:23:41;;;;;;;0.67;0.60;;;;;;;;;;5141633;27;20432;-78
2022/09/27 14:26:19;;;;;;;0.80;0.80;;;;;;;;;;5133644;27;20468;-80
2022/09/27 14:28:45;;;;;;;0.70;0.70;;;;;;;;;;5124258;27;20469;-82
2022/09/27 14:31:24;;;;;;;1.10;1.00;;;;;;;;;;5134300;28;20546;-87
2022/09/27 14:34:27;;;;;;;0.80;0.80;;;;;;;;;;5140929;27;20818;-83
2022/09/27 14:40:05;;;;;;;0.60;0.60;;;;;;;;;;5126633;27;20444;-86
2022/09/27 14:42:35;;;;;;;0.67;0.60;;;;;;;;;;5120405;27;20463;-84
2022/09/27 14:45:05;;;;;;;0.60;0.60;;;;;;;;;;5154713;27;20432;-83
2022/09/27 14:47:33;;;;;;;0.80;0.80;;;;;;;;;;5124872;28;20601;-85
2022/09/27 14:50:02;;;;;;;0.70;0.70;;;;;;;;;;5116836;27;20492;-83
2022/09/27 14:52:33;;;;;;;0.70;0.70;;;;;;;;;;5139774;27;20509;-83
2022/09/27 14:55:05;;;;;;;0.70;0.60;;;;;;;;;;5146156;27;20444;-85
2022/09/27 14:57:33;;;;;;;0.70;0.70;;;;;;;;;;5143285;27;20846;-85
2022/09/27 15:00:14;;;;;;;0.67;0.60;;;;;;;;;;5157638;27;21115;-84
2022/09/27 15:02:43;;;;;;;0.70;0.70;;;;;;;;;;5132437;27;20518;-83
2022/09/27 15:05:13;;;;;;;0.70;0.70;;;;;;;;;;5133893;27;20961;-84
2022/09/27 15:07:41;;;;;;;0.70;0.70;;;;;;;;;;5113533;27;20666;-79
2022/09/27 15:10:13;;;;;;;0.80;0.80;;;;;;;;;;5113402;27;20501;-83
2022/09/27 15:12:40;;;;;;;0.70;0.70;;;;;;;;;;5169265;27;20455;-81
2022/09/27 15:15:11;;;;;;;0.70;0.60;;;;;;;;;;5144558;27;20463;-83
2022/09/27 15:17:41;;;;;;;0.70;0.70;;;;;;;;;;5148561;27;20431;-80
2022/09/27 15:20:27;;;;;;;0.70;0.70;;;;;;;;;;5147590;27;20457;-83
2022/09/27 15:23:02;;;;;;;0.70;0.70;;;;;;;;;;5150456;27;20931;-82
2022/09/27 15:25:35;;;;;;;0.70;0.60;;;;;;;;;;5152316;27;20467;-82
2022/09/27 15:28:07;;;;;;;0.60;0.60;;;;;;;;;;5160376;27;20435;-77
2022/09/27 15:30:38;;;;;;;0.60;0.60;;;;;;;;;;5142364;27;20431;-83
2022/09/27 15:33:09;;;;;;;0.60;0.60;;;;;;;;;;5151673;27;20458;-81
2022/09/27 15:35:36;;;;;;;0.60;0.60;;;;;;;;;;5142708;27;20474;-81
2022/09/27 15:38:29;;;;;;;0.60;0.60;;;;;;;;;;5153386;27;21068;-85